D93 weather

Airtrek Airport
Waterloo, New York, United States

Public forecast

Using degrees Fahrenheit for public forecast. Weather courtesy of forecast.io.

Closest aviation weather report (METAR) to Airtrek Airport

Closest report is Penn Yan Airport, 15.6 nm (28.9 km) SW. Retrieved 2019/10/19 10:15 UTC (44 minutes ago):

KPEO 191015Z AUTO 23006KT 3SM BR OVC001 03/03 A3007 RMK AO2 T00330028

Closest aviation forecast (TAF) to Airtrek Airport

Closest forecast is Ithaca Tompkins Regional Airport, 27.6 nm (51.2 km) SE. Retrieved 2019/10/19 06:22 UTC (5 hours ago):

TAF KITH 190520Z 1906/2006 00000KT P6SM SCT035 FM191200 14002KT P6SM SCT250